Pecos, TX (79772)

6:58 AM CST on February 08, 2016 (GMT -0600)
Pecos Municipal | | Change Station
CLOSE
Current Station
Airport
Location: Pecos,
Elevation: 2612 ft
Nearby Weather Stations

Elev 2612 ft 31.38 °N, 103.51 °W | Updated 23 minutes ago

Mostly Cloudy
Mostly Cloudy
32 °F
Feels Like 26 °F
N
7
Wind Variable Wind from NNW

Today
High -- | Low -- °F
--% Chance of Precip.
Yesterday
High -- | Low -- °F
Precip. -- in
Pressure 30.53 in
Visibility 10.0 miles
Clouds Clear
Windchill 26 °F
Dew Point 18 °F
Humidity 56%
Rainfall 0.00 in
Snow Depth Not available.
7:42 AM 6:35 PM
Waning Crescent, 0% visible
METAR KPEQ 081235Z AUTO 33006KT 10SM CLR 00/M08 A3053 RMK AO2 T00021077
Pressure 30.53 in
Visibility 10.0 miles
Clouds Clear
Windchill 26 °F
Dew Point 18 °F
Humidity 56%
Rainfall 0.00 in
Snow Depth Not available.
7:42 AM 6:35 PM
Waning Crescent, 0% visible
METAR KPEQ 081235Z AUTO 33006KT 10SM CLR 00/M08 A3053 RMK AO2 T00021077

10-Day Weather Forecast

Almanac

Astronomy

Feb. 08, 2016 Rise Set
Actual Time
Civil Twilight
Nautical Twilight
Astronomical Twilight
Moon
Length of Visible Light
Length of Day
Tomorrow will be .
, % of the Moon is Illuminated

Today's Extremes

State Highs State Lows

Community

WunderPhotos

Upload Photos

1,891,428 photos uploaded!

WunderBlog® & News

Nearby

Air Quality

  Air Quality AQ Index Pollutant
Not available.

Snow Depth

Station Depth Elevation

Earthquake Activity

City Distance Mag. Time & Date
Minimum magnitude displayed is 2.5.

Coastal Water Temperatures

Place Temperature

Stations

Nearby Weather Stations

Station Location Temp. Windchill Dew Point Humidity Wind Precip. Elev Updated Type
                   

Watches & Warnings

There are currently no watches in effect.